sensor_id;sensor_type;location;lat;lon;timestamp;pressure;altitude;pressure_sealevel;temperature;humidity
58668;BME280;59852;43.086;25.634;2023-07-20T00:01:28;98638.41;;;23.70;nan
58668;BME280;59852;43.086;25.634;2023-07-20T00:03:54;98630.56;;;23.40;nan
58668;BME280;59852;43.086;25.634;2023-07-20T00:06:22;98644.53;;;23.42;nan
58668;BME280;59852;43.086;25.634;2023-07-20T00:08:50;98638.81;;;23.45;nan
58668;BME280;59852;43.086;25.634;2023-07-20T00:11:15;98644.41;;;23.51;nan
58668;BME280;59852;43.086;25.634;2023-07-20T00:13:41;98644.78;;;23.47;nan
58668;BME280;59852;43.086;25.634;2023-07-20T00:16:06;98640.50;;;23.53;nan
58668;BME280;59852;43.086;25.634;2023-07-20T00:18:31;98642.59;;;23.58;nan
58668;BME280;59852;43.086;25.634;2023-07-20T00:20:57;98644.00;;;23.54;nan
58668;BME280;59852;43.086;25.634;2023-07-20T00:23:22;98629.31;;;22.72;nan
58668;BME280;59852;43.086;25.634;2023-07-20T00:25:48;98605.56;;;22.56;nan
58668;BME280;59852;43.086;25.634;2023-07-20T00:28:13;98606.19;;;22.94;nan
58668;BME280;59852;43.086;25.634;2023-07-20T00:30:39;98598.28;;;23.07;nan
58668;BME280;59852;43.086;25.634;2023-07-20T00:33:05;98596.56;;;23.21;nan
58668;BME280;59852;43.086;25.634;2023-07-20T00:35:30;98590.22;;;23.01;nan
58668;BME280;59852;43.086;25.634;2023-07-20T00:37:55;98576.06;;;23.28;nan
58668;BME280;59852;43.086;25.634;2023-07-20T00:40:21;98564.28;;;23.16;nan
58668;BME280;59852;43.086;25.634;2023-07-20T00:42:46;98549.84;;;23.10;nan
58668;BME280;59852;43.086;25.634;2023-07-20T00:45:11;98545.03;;;23.21;nan
58668;BME280;59852;43.086;25.634;2023-07-20T00:47:37;98540.69;;;23.19;nan
58668;BME280;59852;43.086;25.634;2023-07-20T00:50:02;98533.56;;;23.27;nan
58668;BME280;59852;43.086;25.634;2023-07-20T00:52:28;98543.81;;;23.58;nan
58668;BME280;59852;43.086;25.634;2023-07-20T00:54:54;98525.94;;;23.58;nan
58668;BME280;59852;43.086;25.634;2023-07-20T00:57:21;98520.41;;;23.25;nan
58668;BME280;59852;43.086;25.634;2023-07-20T00:59:48;98503.63;;;23.31;nan
58668;BME280;59852;43.086;25.634;2023-07-20T01:02:13;98497.34;;;23.45;nan
58668;BME280;59852;43.086;25.634;2023-07-20T01:04:39;98497.47;;;23.31;nan
58668;BME280;59852;43.086;25.634;2023-07-20T01:07:26;98481.28;;;23.39;nan
58668;BME280;59852;43.086;25.634;2023-07-20T01:12:51;98363.25;;;23.43;nan
58668;BME280;59852;43.086;25.634;2023-07-20T01:15:07;98263.41;;;23.11;nan
58668;BME280;59852;43.086;25.634;2023-07-20T01:17:33;98198.59;;;23.31;nan
58668;BME280;59852;43.086;25.634;2023-07-20T01:19:58;98179.72;;;23.85;nan
58668;BME280;59852;43.086;25.634;2023-07-20T01:33:02;98253.25;;;22.87;nan
58668;BME280;59852;43.086;25.634;2023-07-20T01:35:29;98256.16;;;22.92;nan
58668;BME280;59852;43.086;25.634;2023-07-20T01:37:55;98252.78;;;23.31;nan
58668;BME280;59852;43.086;25.634;2023-07-20T01:40:20;98260.53;;;22.65;nan
58668;BME280;59852;43.086;25.634;2023-07-20T01:42:47;98231.00;;;22.67;nan
58668;BME280;59852;43.086;25.634;2023-07-20T01:45:13;98214.16;;;22.59;nan
58668;BME280;59852;43.086;25.634;2023-07-20T01:47:38;98208.66;;;22.68;nan
58668;BME280;59852;43.086;25.634;2023-07-20T01:50:04;98217.13;;;22.37;nan
58668;BME280;59852;43.086;25.634;2023-07-20T01:52:30;98228.22;;;22.40;nan
58668;BME280;59852;43.086;25.634;2023-07-20T01:54:55;98231.78;;;22.54;nan
58668;BME280;59852;43.086;25.634;2023-07-20T01:57:20;98241.47;;;22.61;nan
58668;BME280;59852;43.086;25.634;2023-07-20T01:59:46;98248.75;;;22.87;nan
58668;BME280;59852;43.086;25.634;2023-07-20T02:02:11;98234.81;;;22.85;nan
58668;BME280;59852;43.086;25.634;2023-07-20T02:04:36;98236.28;;;22.53;nan
58668;BME280;59852;43.086;25.634;2023-07-20T02:07:02;98243.81;;;22.43;nan
58668;BME280;59852;43.086;25.634;2023-07-20T02:09:27;98234.44;;;22.19;nan
58668;BME280;59852;43.086;25.634;2023-07-20T02:11:52;98236.78;;;22.77;nan
58668;BME280;59852;43.086;25.634;2023-07-20T02:14:18;98241.97;;;22.09;nan
58668;BME280;59852;43.086;25.634;2023-07-20T02:16:43;98233.97;;;22.09;nan
58668;BME280;59852;43.086;25.634;2023-07-20T02:19:08;98231.19;;;21.96;nan
58668;BME280;59852;43.086;25.634;2023-07-20T02:21:34;98236.03;;;21.86;nan
58668;BME280;59852;43.086;25.634;2023-07-20T02:23:59;98214.69;;;21.79;nan
58668;BME280;59852;43.086;25.634;2023-07-20T02:26:25;98211.06;;;21.87;nan
58668;BME280;59852;43.086;25.634;2023-07-20T02:28:50;98215.94;;;22.11;nan
58668;BME280;59852;43.086;25.634;2023-07-20T02:31:16;98213.38;;;22.24;nan
58668;BME280;59852;43.086;25.634;2023-07-20T02:33:41;98217.44;;;21.92;nan
58668;BME280;59852;43.086;25.634;2023-07-20T02:36:06;98219.13;;;22.00;nan
58668;BME280;59852;43.086;25.634;2023-07-20T02:38:32;98218.63;;;22.11;nan
58668;BME280;59852;43.086;25.634;2023-07-20T02:40:57;98206.78;;;21.92;nan
58668;BME280;59852;43.086;25.634;2023-07-20T02:43:22;98207.78;;;21.85;nan
58668;BME280;59852;43.086;25.634;2023-07-20T02:45:47;98209.38;;;21.79;nan
58668;BME280;59852;43.086;25.634;2023-07-20T02:48:13;98200.22;;;21.88;nan
58668;BME280;59852;43.086;25.634;2023-07-20T02:50:38;98202.69;;;21.90;nan
58668;BME280;59852;43.086;25.634;2023-07-20T02:53:03;98203.50;;;22.18;nan
58668;BME280;59852;43.086;25.634;2023-07-20T02:55:29;98207.28;;;22.02;nan
58668;BME280;59852;43.086;25.634;2023-07-20T02:57:54;98210.00;;;22.09;nan
58668;BME280;59852;43.086;25.634;2023-07-20T03:00:19;98214.31;;;22.10;nan
58668;BME280;59852;43.086;25.634;2023-07-20T03:02:45;98214.53;;;21.87;nan
58668;BME280;59852;43.086;25.634;2023-07-20T03:05:17;98211.53;;;22.25;nan
58668;BME280;59852;43.086;25.634;2023-07-20T03:07:42;98220.50;;;22.52;nan
58668;BME280;59852;43.086;25.634;2023-07-20T03:10:08;98223.13;;;22.45;nan
58668;BME280;59852;43.086;25.634;2023-07-20T03:12:34;98240.44;;;22.69;nan
58668;BME280;59852;43.086;25.634;2023-07-20T03:15:00;98255.97;;;22.52;nan
58668;BME280;59852;43.086;25.634;2023-07-20T03:17:25;98240.88;;;22.31;nan
58668;BME280;59852;43.086;25.634;2023-07-20T03:19:50;98229.78;;;22.00;nan
58668;BME280;59852;43.086;25.634;2023-07-20T03:22:16;98247.19;;;22.24;nan
58668;BME280;59852;43.086;25.634;2023-07-20T03:24:41;98254.94;;;22.19;nan
58668;BME280;59852;43.086;25.634;2023-07-20T03:27:06;98270.97;;;22.25;nan
58668;BME280;59852;43.086;25.634;2023-07-20T03:29:32;98270.22;;;22.38;nan
58668;BME280;59852;43.086;25.634;2023-07-20T03:31:58;98280.00;;;22.66;nan
58668;BME280;59852;43.086;25.634;2023-07-20T03:34:24;98290.31;;;22.75;nan
58668;BME280;59852;43.086;25.634;2023-07-20T03:36:49;98282.22;;;22.55;nan
58668;BME280;59852;43.086;25.634;2023-07-20T03:39:15;98302.72;;;22.55;nan
58668;BME280;59852;43.086;25.634;2023-07-20T03:41:40;98302.31;;;22.23;nan
58668;BME280;59852;43.086;25.634;2023-07-20T03:44:05;98303.56;;;22.27;nan
58668;BME280;59852;43.086;25.634;2023-07-20T03:46:31;98311.34;;;22.22;nan
58668;BME280;59852;43.086;25.634;2023-07-20T03:48:56;98299.72;;;22.37;nan
58668;BME280;59852;43.086;25.634;2023-07-20T03:51:21;98298.84;;;22.23;nan
58668;BME280;59852;43.086;25.634;2023-07-20T03:53:47;98291.13;;;22.41;nan
58668;BME280;59852;43.086;25.634;2023-07-20T03:56:12;98306.22;;;22.55;nan
58668;BME280;59852;43.086;25.634;2023-07-20T03:58:37;98302.31;;;22.58;nan
58668;BME280;59852;43.086;25.634;2023-07-20T04:01:03;98303.47;;;22.42;nan
58668;BME280;59852;43.086;25.634;2023-07-20T04:03:28;98308.66;;;22.22;nan
58668;BME280;59852;43.086;25.634;2023-07-20T04:05:54;98309.47;;;21.73;nan
58668;BME280;59852;43.086;25.634;2023-07-20T04:08:20;98308.81;;;21.29;nan
58668;BME280;59852;43.086;25.634;2023-07-20T04:10:46;98309.78;;;22.35;nan
58668;BME280;59852;43.086;25.634;2023-07-20T04:13:11;98322.47;;;22.67;nan
58668;BME280;59852;43.086;25.634;2023-07-20T04:15:37;98323.41;;;21.75;nan
58668;BME280;59852;43.086;25.634;2023-07-20T04:18:02;98337.09;;;21.94;nan
58668;BME280;59852;43.086;25.634;2023-07-20T04:20:28;98337.91;;;22.44;nan
58668;BME280;59852;43.086;25.634;2023-07-20T04:22:53;98326.28;;;22.23;nan
58668;BME280;59852;43.086;25.634;2023-07-20T04:25:19;98335.34;;;22.92;nan
58668;BME280;59852;43.086;25.634;2023-07-20T04:27:44;98327.63;;;22.41;nan
58668;BME280;59852;43.086;25.634;2023-07-20T04:30:10;98326.72;;;22.55;nan
58668;BME280;59852;43.086;25.634;2023-07-20T04:32:36;98332.25;;;22.88;nan
58668;BME280;59852;43.086;25.634;2023-07-20T04:35:05;98327.63;;;23.10;nan
58668;BME280;59852;43.086;25.634;2023-07-20T04:37:31;98328.47;;;23.17;nan
58668;BME280;59852;43.086;25.634;2023-07-20T04:39:56;98333.31;;;22.94;nan
58668;BME280;59852;43.086;25.634;2023-07-20T04:42:21;98330.19;;;23.38;nan
58668;BME280;59852;43.086;25.634;2023-07-20T04:44:46;98325.66;;;23.32;nan
58668;BME280;59852;43.086;25.634;2023-07-20T04:47:12;98328.22;;;23.05;nan
58668;BME280;59852;43.086;25.634;2023-07-20T04:49:37;98316.28;;;22.95;nan
58668;BME280;59852;43.086;25.634;2023-07-20T04:52:03;98323.47;;;22.94;nan
58668;BME280;59852;43.086;25.634;2023-07-20T04:54:29;98327.34;;;22.92;nan
58668;BME280;59852;43.086;25.634;2023-07-20T04:56:54;98328.59;;;22.96;nan
58668;BME280;59852;43.086;25.634;2023-07-20T04:59:19;98319.19;;;23.06;nan
58668;BME280;59852;43.086;25.634;2023-07-20T05:01:45;98318.56;;;22.63;nan
58668;BME280;59852;43.086;25.634;2023-07-20T05:04:10;98321.56;;;22.88;nan
58668;BME280;59852;43.086;25.634;2023-07-20T05:06:36;98316.03;;;22.89;nan
58668;BME280;59852;43.086;25.634;2023-07-20T05:09:01;98320.47;;;23.17;nan
58668;BME280;59852;43.086;25.634;2023-07-20T05:13:51;98311.91;;;23.35;nan
58668;BME280;59852;43.086;25.634;2023-07-20T05:16:17;98314.72;;;23.13;nan
58668;BME280;59852;43.086;25.634;2023-07-20T05:18:42;98315.56;;;23.21;nan
58668;BME280;59852;43.086;25.634;2023-07-20T05:21:07;98314.97;;;23.25;nan
58668;BME280;59852;43.086;25.634;2023-07-20T05:23:33;98320.16;;;23.53;nan
58668;BME280;59852;43.086;25.634;2023-07-20T05:25:58;98320.66;;;23.15;nan
58668;BME280;59852;43.086;25.634;2023-07-20T05:28:24;98315.38;;;23.22;nan
58668;BME280;59852;43.086;25.634;2023-07-20T05:30:50;98309.13;;;23.02;nan
58668;BME280;59852;43.086;25.634;2023-07-20T05:33:17;98305.19;;;23.52;nan
58668;BME280;59852;43.086;25.634;2023-07-20T05:35:42;98309.34;;;24.08;nan
58668;BME280;59852;43.086;25.634;2023-07-20T05:38:08;98313.81;;;23.54;nan
58668;BME280;59852;43.086;25.634;2023-07-20T05:40:33;98315.50;;;24.15;nan
58668;BME280;59852;43.086;25.634;2023-07-20T05:43:00;98309.97;;;24.49;nan
58668;BME280;59852;43.086;25.634;2023-07-20T05:45:26;98304.97;;;24.66;nan
58668;BME280;59852;43.086;25.634;2023-07-20T05:47:51;98307.06;;;24.51;nan
58668;BME280;59852;43.086;25.634;2023-07-20T05:50:17;98312.44;;;24.51;nan
58668;BME280;59852;43.086;25.634;2023-07-20T05:52:42;98315.28;;;24.63;nan
58668;BME280;59852;43.086;25.634;2023-07-20T05:55:07;98316.34;;;24.35;nan
58668;BME280;59852;43.086;25.634;2023-07-20T05:57:33;98312.22;;;24.13;nan
58668;BME280;59852;43.086;25.634;2023-07-20T05:59:58;98297.63;;;24.42;nan
58668;BME280;59852;43.086;25.634;2023-07-20T06:02:24;98302.75;;;24.17;nan
58668;BME280;59852;43.086;25.634;2023-07-20T06:04:49;98299.81;;;24.71;nan
58668;BME280;59852;43.086;25.634;2023-07-20T06:07:14;98304.56;;;24.69;nan
58668;BME280;59852;43.086;25.634;2023-07-20T06:09:40;98302.56;;;24.12;nan
58668;BME280;59852;43.086;25.634;2023-07-20T06:12:06;98301.69;;;24.57;nan
58668;BME280;59852;43.086;25.634;2023-07-20T06:14:31;98305.75;;;24.80;nan
58668;BME280;59852;43.086;25.634;2023-07-20T06:16:56;98312.00;;;24.47;nan
58668;BME280;59852;43.086;25.634;2023-07-20T06:19:22;98299.16;;;24.82;nan
58668;BME280;59852;43.086;25.634;2023-07-20T06:21:47;98298.41;;;24.69;nan
58668;BME280;59852;43.086;25.634;2023-07-20T06:24:14;98296.94;;;24.73;nan
58668;BME280;59852;43.086;25.634;2023-07-20T06:26:39;98297.75;;;24.73;nan
58668;BME280;59852;43.086;25.634;2023-07-20T06:29:05;98299.50;;;24.01;nan
58668;BME280;59852;43.086;25.634;2023-07-20T06:31:37;98297.81;;;24.60;nan
58668;BME280;59852;43.086;25.634;2023-07-20T06:34:02;98305.94;;;24.85;nan
58668;BME280;59852;43.086;25.634;2023-07-20T06:36:28;98306.59;;;24.80;nan
58668;BME280;59852;43.086;25.634;2023-07-20T06:38:53;98304.47;;;25.02;nan
58668;BME280;59852;43.086;25.634;2023-07-20T06:41:19;98301.63;;;24.84;nan
58668;BME280;59852;43.086;25.634;2023-07-20T06:43:44;98291.56;;;24.79;nan
58668;BME280;59852;43.086;25.634;2023-07-20T06:46:10;98303.31;;;24.72;nan
58668;BME280;59852;43.086;25.634;2023-07-20T06:48:35;98307.53;;;24.99;nan
58668;BME280;59852;43.086;25.634;2023-07-20T06:51:00;98296.81;;;25.06;nan
58668;BME280;59852;43.086;25.634;2023-07-20T06:53:25;98300.69;;;25.16;nan
58668;BME280;59852;43.086;25.634;2023-07-20T06:55:51;98306.81;;;25.30;nan
58668;BME280;59852;43.086;25.634;2023-07-20T06:58:16;98305.56;;;25.26;nan
58668;BME280;59852;43.086;25.634;2023-07-20T07:00:42;98306.97;;;25.35;nan
58668;BME280;59852;43.086;25.634;2023-07-20T07:03:08;98304.94;;;25.37;nan
58668;BME280;59852;43.086;25.634;2023-07-20T07:05:36;98310.31;;;25.24;nan
58668;BME280;59852;43.086;25.634;2023-07-20T07:08:03;98309.06;;;25.27;nan
58668;BME280;59852;43.086;25.634;2023-07-20T07:10:28;98316.13;;;25.21;nan
58668;BME280;59852;43.086;25.634;2023-07-20T07:12:53;98313.09;;;25.49;nan
58668;BME280;59852;43.086;25.634;2023-07-20T07:15:19;98318.59;;;25.54;nan
58668;BME280;59852;43.086;25.634;2023-07-20T07:17:44;98311.72;;;25.71;nan
58668;BME280;59852;43.086;25.634;2023-07-20T07:20:09;98325.19;;;25.58;nan
58668;BME280;59852;43.086;25.634;2023-07-20T07:22:35;98309.28;;;25.70;nan
58668;BME280;59852;43.086;25.634;2023-07-20T07:25:00;98314.19;;;25.73;nan
58668;BME280;59852;43.086;25.634;2023-07-20T07:27:25;98306.56;;;25.77;nan
58668;BME280;59852;43.086;25.634;2023-07-20T07:29:51;98315.78;;;25.81;nan
58668;BME280;59852;43.086;25.634;2023-07-20T07:32:16;98316.34;;;25.89;nan
58668;BME280;59852;43.086;25.634;2023-07-20T07:34:44;98318.28;;;25.76;nan
58668;BME280;59852;43.086;25.634;2023-07-20T07:37:11;98319.84;;;26.15;nan
58668;BME280;59852;43.086;25.634;2023-07-20T07:39:37;98314.09;;;26.36;nan
58668;BME280;59852;43.086;25.634;2023-07-20T07:42:03;98318.00;;;26.34;nan
58668;BME280;59852;43.086;25.634;2023-07-20T07:44:28;98319.63;;;26.41;nan
58668;BME280;59852;43.086;25.634;2023-07-20T07:46:54;98326.19;;;26.20;nan
58668;BME280;59852;43.086;25.634;2023-07-20T07:49:19;98322.19;;;26.29;nan
58668;BME280;59852;43.086;25.634;2023-07-20T07:51:45;98315.34;;;26.34;nan
58668;BME280;59852;43.086;25.634;2023-07-20T07:54:10;98323.06;;;26.48;nan
58668;BME280;59852;43.086;25.634;2023-07-20T07:56:36;98323.31;;;26.47;nan
58668;BME280;59852;43.086;25.634;2023-07-20T07:59:01;98333.56;;;26.50;nan
58668;BME280;59852;43.086;25.634;2023-07-20T08:01:28;98324.72;;;26.49;nan
58668;BME280;59852;43.086;25.634;2023-07-20T08:03:53;98326.50;;;26.74;nan
58668;BME280;59852;43.086;25.634;2023-07-20T08:06:18;98329.28;;;26.85;nan
58668;BME280;59852;43.086;25.634;2023-07-20T08:08:44;98328.41;;;27.10;nan
58668;BME280;59852;43.086;25.634;2023-07-20T08:11:09;98337.44;;;27.15;nan
58668;BME280;59852;43.086;25.634;2023-07-20T08:13:35;98326.28;;;27.30;nan
58668;BME280;59852;43.086;25.634;2023-07-20T08:16:00;98325.06;;;27.44;nan
58668;BME280;59852;43.086;25.634;2023-07-20T08:18:27;98329.94;;;27.36;nan
58668;BME280;59852;43.086;25.634;2023-07-20T08:20:52;98328.69;;;27.20;nan
58668;BME280;59852;43.086;25.634;2023-07-20T08:23:18;98338.53;;;27.26;nan
58668;BME280;59852;43.086;25.634;2023-07-20T08:25:43;98341.34;;;27.31;nan
58668;BME280;59852;43.086;25.634;2023-07-20T08:28:17;98342.94;;;27.51;nan
58668;BME280;59852;43.086;25.634;2023-07-20T08:30:46;98340.25;;;27.69;nan
58668;BME280;59852;43.086;25.634;2023-07-20T08:33:16;98338.53;;;27.56;nan
58668;BME280;59852;43.086;25.634;2023-07-20T08:35:42;98341.53;;;27.48;nan
58668;BME280;59852;43.086;25.634;2023-07-20T08:38:08;98337.53;;;27.39;nan
58668;BME280;59852;43.086;25.634;2023-07-20T08:40:34;98336.31;;;27.53;nan
58668;BME280;59852;43.086;25.634;2023-07-20T08:43:00;98332.47;;;27.61;nan
58668;BME280;59852;43.086;25.634;2023-07-20T08:45:26;98335.09;;;27.67;nan
58668;BME280;59852;43.086;25.634;2023-07-20T08:47:52;98332.91;;;27.76;nan
58668;BME280;59852;43.086;25.634;2023-07-20T08:50:19;98334.00;;;27.98;nan
58668;BME280;59852;43.086;25.634;2023-07-20T08:52:45;98331.31;;;27.98;nan
58668;BME280;59852;43.086;25.634;2023-07-20T08:55:10;98342.16;;;27.92;nan
58668;BME280;59852;43.086;25.634;2023-07-20T08:57:36;98338.38;;;27.69;nan
58668;BME280;59852;43.086;25.634;2023-07-20T09:00:03;98343.53;;;27.53;nan
58668;BME280;59852;43.086;25.634;2023-07-20T09:02:35;98342.16;;;27.62;nan
58668;BME280;59852;43.086;25.634;2023-07-20T09:05:04;98347.34;;;27.63;nan
58668;BME280;59852;43.086;25.634;2023-07-20T09:07:29;98352.38;;;27.71;nan
58668;BME280;59852;43.086;25.634;2023-07-20T09:09:57;98363.81;;;27.97;nan
58668;BME280;59852;43.086;25.634;2023-07-20T09:12:22;98362.66;;;28.05;nan
58668;BME280;59852;43.086;25.634;2023-07-20T09:14:47;98359.44;;;28.38;nan
58668;BME280;59852;43.086;25.634;2023-07-20T09:17:13;98361.88;;;28.27;nan
58668;BME280;59852;43.086;25.634;2023-07-20T09:19:45;98373.13;;;28.36;nan
58668;BME280;59852;43.086;25.634;2023-07-20T09:22:10;98364.00;;;28.49;nan
58668;BME280;59852;43.086;25.634;2023-07-20T09:24:36;98363.66;;;28.57;nan
58668;BME280;59852;43.086;25.634;2023-07-20T09:27:01;98357.91;;;28.77;nan
58668;BME280;59852;43.086;25.634;2023-07-20T09:29:29;98335.94;;;28.68;nan
58668;BME280;59852;43.086;25.634;2023-07-20T09:32:04;98331.34;;;28.80;nan
58668;BME280;59852;43.086;25.634;2023-07-20T09:34:30;98306.91;;;28.94;nan
58668;BME280;59852;43.086;25.634;2023-07-20T09:36:58;98316.25;;;29.03;nan
58668;BME280;59852;43.086;25.634;2023-07-20T09:39:24;98316.03;;;28.93;nan
58668;BME280;59852;43.086;25.634;2023-07-20T09:41:49;98302.69;;;28.74;nan
58668;BME280;59852;43.086;25.634;2023-07-20T09:44:16;98311.25;;;28.24;nan
58668;BME280;59852;43.086;25.634;2023-07-20T09:46:42;98331.16;;;28.35;nan
58668;BME280;59852;43.086;25.634;2023-07-20T09:49:08;98317.34;;;28.55;nan
58668;BME280;59852;43.086;25.634;2023-07-20T09:51:34;98309.47;;;28.77;nan
58668;BME280;59852;43.086;25.634;2023-07-20T09:53:59;98297.78;;;28.71;nan
58668;BME280;59852;43.086;25.634;2023-07-20T09:56:25;98289.78;;;28.88;nan
58668;BME280;59852;43.086;25.634;2023-07-20T09:58:51;98289.63;;;29.06;nan
58668;BME280;59852;43.086;25.634;2023-07-20T10:01:20;98286.38;;;29.04;nan
58668;BME280;59852;43.086;25.634;2023-07-20T10:03:46;98269.94;;;29.18;nan
58668;BME280;59852;43.086;25.634;2023-07-20T10:06:13;98270.31;;;29.09;nan
58668;BME280;59852;43.086;25.634;2023-07-20T10:08:40;98274.16;;;29.13;nan
58668;BME280;59852;43.086;25.634;2023-07-20T10:11:06;98282.97;;;29.37;nan
58668;BME280;59852;43.086;25.634;2023-07-20T10:13:32;98281.72;;;29.57;nan
58668;BME280;59852;43.086;25.634;2023-07-20T10:16:03;98272.75;;;29.68;nan
58668;BME280;59852;43.086;25.634;2023-07-20T10:21:32;98270.88;;;30.02;nan
58668;BME280;59852;43.086;25.634;2023-07-20T10:23:59;98273.00;;;30.17;nan
58668;BME280;59852;43.086;25.634;2023-07-20T10:26:25;98278.13;;;30.35;nan
58668;BME280;59852;43.086;25.634;2023-07-20T10:28:50;98273.81;;;30.17;nan
58668;BME280;59852;43.086;25.634;2023-07-20T10:31:16;98263.94;;;29.89;nan
58668;BME280;59852;43.086;25.634;2023-07-20T10:33:42;98266.22;;;29.97;nan
58668;BME280;59852;43.086;25.634;2023-07-20T10:36:09;98260.34;;;29.84;nan
58668;BME280;59852;43.086;25.634;2023-07-20T10:44:08;98261.00;;;29.91;nan
58668;BME280;59852;43.086;25.634;2023-07-20T10:46:44;98256.16;;;29.76;nan
58668;BME280;59852;43.086;25.634;2023-07-20T10:49:10;98259.03;;;30.03;nan
58668;BME280;59852;43.086;25.634;2023-07-20T10:51:43;98257.16;;;30.20;nan
58668;BME280;59852;43.086;25.634;2023-07-20T10:54:09;98253.47;;;30.26;nan
58668;BME280;59852;43.086;25.634;2023-07-20T10:56:34;98248.91;;;29.93;nan
58668;BME280;59852;43.086;25.634;2023-07-20T10:59:00;98251.84;;;29.92;nan
58668;BME280;59852;43.086;25.634;2023-07-20T11:01:29;98247.50;;;30.24;nan
58668;BME280;59852;43.086;25.634;2023-07-20T11:03:58;98249.41;;;29.90;nan
58668;BME280;59852;43.086;25.634;2023-07-20T11:09:06;98247.59;;;30.30;nan
58668;BME280;59852;43.086;25.634;2023-07-20T11:11:44;98237.94;;;30.55;nan
58668;BME280;59852;43.086;25.634;2023-07-20T11:14:11;98243.88;;;30.74;nan
58668;BME280;59852;43.086;25.634;2023-07-20T11:16:45;98240.03;;;30.48;nan
58668;BME280;59852;43.086;25.634;2023-07-20T11:19:23;98229.34;;;30.59;nan
58668;BME280;59852;43.086;25.634;2023-07-20T11:21:50;98237.16;;;30.99;nan
58668;BME280;59852;43.086;25.634;2023-07-20T11:24:16;98236.84;;;30.35;nan
58668;BME280;59852;43.086;25.634;2023-07-20T11:29:07;98214.47;;;30.17;nan
58668;BME280;59852;43.086;25.634;2023-07-20T11:31:36;98213.44;;;30.79;nan
58668;BME280;59852;43.086;25.634;2023-07-20T11:34:02;98223.28;;;31.17;nan
58668;BME280;59852;43.086;25.634;2023-07-20T11:36:27;98215.81;;;31.24;nan
58668;BME280;59852;43.086;25.634;2023-07-20T11:38:53;98219.75;;;30.68;nan
58668;BME280;59852;43.086;25.634;2023-07-20T11:41:19;98214.94;;;30.97;nan
58668;BME280;59852;43.086;25.634;2023-07-20T11:43:44;98212.94;;;31.09;nan
58668;BME280;59852;43.086;25.634;2023-07-20T11:46:10;98204.25;;;30.80;nan
58668;BME280;59852;43.086;25.634;2023-07-20T11:48:36;98201.81;;;31.05;nan
58668;BME280;59852;43.086;25.634;2023-07-20T11:51:01;98202.41;;;31.07;nan
58668;BME280;59852;43.086;25.634;2023-07-20T11:53:26;98209.78;;;31.17;nan
58668;BME280;59852;43.086;25.634;2023-07-20T11:55:52;98203.84;;;30.93;nan
58668;BME280;59852;43.086;25.634;2023-07-20T11:58:17;98208.63;;;30.86;nan
58668;BME280;59852;43.086;25.634;2023-07-20T12:00:43;98194.59;;;31.11;nan
58668;BME280;59852;43.086;25.634;2023-07-20T12:03:09;98183.56;;;31.45;nan
58668;BME280;59852;43.086;25.634;2023-07-20T12:05:36;98182.28;;;31.20;nan
58668;BME280;59852;43.086;25.634;2023-07-20T12:08:01;98182.00;;;30.95;nan
58668;BME280;59852;43.086;25.634;2023-07-20T12:10:27;98172.91;;;31.28;nan
58668;BME280;59852;43.086;25.634;2023-07-20T12:12:53;98158.81;;;31.26;nan
58668;BME280;59852;43.086;25.634;2023-07-20T12:15:22;98159.13;;;31.29;nan
58668;BME280;59852;43.086;25.634;2023-07-20T12:17:55;98163.50;;;31.08;nan
58668;BME280;59852;43.086;25.634;2023-07-20T12:20:27;98143.78;;;31.08;nan
58668;BME280;59852;43.086;25.634;2023-07-20T12:22:55;98140.59;;;31.16;nan
58668;BME280;59852;43.086;25.634;2023-07-20T12:25:21;98134.56;;;31.31;nan
58668;BME280;59852;43.086;25.634;2023-07-20T12:27:47;98122.81;;;30.88;nan
58668;BME280;59852;43.086;25.634;2023-07-20T12:30:13;98128.84;;;30.51;nan
58668;BME280;59852;43.086;25.634;2023-07-20T12:32:42;98119.06;;;30.45;nan
58668;BME280;59852;43.086;25.634;2023-07-20T12:35:07;98104.41;;;30.14;nan
58668;BME280;59852;43.086;25.634;2023-07-20T12:37:32;98101.41;;;29.94;nan
58668;BME280;59852;43.086;25.634;2023-07-20T12:39:58;98109.44;;;30.54;nan
58668;BME280;59852;43.086;25.634;2023-07-20T12:42:23;98101.75;;;30.90;nan
58668;BME280;59852;43.086;25.634;2023-07-20T12:44:49;98109.22;;;31.10;nan
58668;BME280;59852;43.086;25.634;2023-07-20T12:47:14;98112.38;;;30.75;nan
58668;BME280;59852;43.086;25.634;2023-07-20T12:49:39;98113.16;;;30.70;nan
58668;BME280;59852;43.086;25.634;2023-07-20T12:52:05;98120.16;;;31.20;nan
58668;BME280;59852;43.086;25.634;2023-07-20T12:54:30;98124.25;;;31.01;nan
58668;BME280;59852;43.086;25.634;2023-07-20T12:56:56;98116.72;;;30.54;nan
58668;BME280;59852;43.086;25.634;2023-07-20T12:59:21;98112.91;;;30.06;nan
58668;BME280;59852;43.086;25.634;2023-07-20T13:01:46;98121.47;;;30.42;nan
58668;BME280;59852;43.086;25.634;2023-07-20T13:04:12;98121.53;;;30.69;nan
58668;BME280;59852;43.086;25.634;2023-07-20T13:06:38;98116.63;;;30.66;nan
58668;BME280;59852;43.086;25.634;2023-07-20T13:09:04;98121.56;;;30.74;nan
58668;BME280;59852;43.086;25.634;2023-07-20T13:11:29;98109.75;;;30.80;nan
58668;BME280;59852;43.086;25.634;2023-07-20T13:13:55;98111.41;;;30.86;nan
58668;BME280;59852;43.086;25.634;2023-07-20T13:16:20;98099.22;;;31.37;nan
58668;BME280;59852;43.086;25.634;2023-07-20T13:18:45;98089.78;;;31.45;nan
58668;BME280;59852;43.086;25.634;2023-07-20T13:21:11;98091.56;;;31.72;nan
58668;BME280;59852;43.086;25.634;2023-07-20T13:23:37;98086.59;;;31.48;nan
58668;BME280;59852;43.086;25.634;2023-07-20T13:26:02;98094.22;;;31.24;nan
58668;BME280;59852;43.086;25.634;2023-07-20T13:28:28;98083.56;;;31.45;nan
58668;BME280;59852;43.086;25.634;2023-07-20T13:30:53;98074.81;;;31.75;nan
58668;BME280;59852;43.086;25.634;2023-07-20T13:33:18;98078.53;;;31.63;nan